sensor_id;sensor_type;location;lat;lon;timestamp;P1;durP1;ratioP1;P2;durP2;ratioP2
61638;SDS011;47544;52.484;4.658;2024-03-22T00:00:06;26.77;;;11.38;;
61638;SDS011;47544;52.484;4.658;2024-03-22T00:00:19;21.48;;;9.70;;
61638;SDS011;47544;52.484;4.658;2024-03-22T00:00:30;22.60;;;10.82;;
61638;SDS011;47544;52.484;4.658;2024-03-22T00:00:41;27.38;;;11.73;;
61638;SDS011;47544;52.484;4.658;2024-03-22T00:00:52;31.15;;;12.93;;
61638;SDS011;47544;52.484;4.658;2024-03-22T00:01:03;28.77;;;12.10;;
61638;SDS011;47544;52.484;4.658;2024-03-22T00:01:14;27.38;;;12.60;;
61638;SDS011;47544;52.484;4.658;2024-03-22T00:01:25;25.23;;;12.27;;
61638;SDS011;47544;52.484;4.658;2024-03-22T00:01:36;25.38;;;11.88;;
61638;SDS011;47544;52.484;4.658;2024-03-22T00:01:47;24.00;;;11.55;;
61638;SDS011;47544;52.484;4.658;2024-03-22T00:01:58;22.27;;;10.82;;
61638;SDS011;47544;52.484;4.658;2024-03-22T00:02:09;21.83;;;10.57;;
61638;SDS011;47544;52.484;4.658;2024-03-22T00:02:21;19.75;;;9.80;;
61638;SDS011;47544;52.484;4.658;2024-03-22T00:02:32;21.10;;;10.57;;
61638;SDS011;47544;52.484;4.658;2024-03-22T00:02:43;21.70;;;11.02;;
61638;SDS011;47544;52.484;4.658;2024-03-22T00:02:54;21.50;;;10.40;;
61638;SDS011;47544;52.484;4.658;2024-03-22T00:03:05;18.88;;;9.57;;
61638;SDS011;47544;52.484;4.658;2024-03-22T00:03:16;19.67;;;9.40;;
61638;SDS011;47544;52.484;4.658;2024-03-22T00:03:28;22.15;;;10.23;;
61638;SDS011;47544;52.484;4.658;2024-03-22T00:03:40;22.17;;;10.32;;
61638;SDS011;47544;52.484;4.658;2024-03-22T00:03:51;24.15;;;11.73;;
61638;SDS011;47544;52.484;4.658;2024-03-22T00:04:02;26.40;;;12.77;;
61638;SDS011;47544;52.484;4.658;2024-03-22T00:04:14;28.27;;;13.18;;
61638;SDS011;47544;52.484;4.658;2024-03-22T00:04:25;30.77;;;14.52;;
61638;SDS011;47544;52.484;4.658;2024-03-22T00:04:36;31.92;;;14.82;;
61638;SDS011;47544;52.484;4.658;2024-03-22T00:04:47;31.23;;;13.98;;
61638;SDS011;47544;52.484;4.658;2024-03-22T00:04:58;29.42;;;13.25;;
61638;SDS011;47544;52.484;4.658;2024-03-22T00:05:09;24.77;;;11.85;;
61638;SDS011;47544;52.484;4.658;2024-03-22T00:05:22;19.45;;;10.90;;
61638;SDS011;47544;52.484;4.658;2024-03-22T00:05:33;19.08;;;10.23;;
61638;SDS011;47544;52.484;4.658;2024-03-22T00:05:44;18.08;;;9.43;;
61638;SDS011;47544;52.484;4.658;2024-03-22T00:05:56;22.00;;;10.48;;
61638;SDS011;47544;52.484;4.658;2024-03-22T00:06:07;23.45;;;11.02;;
61638;SDS011;47544;52.484;4.658;2024-03-22T00:06:18;25.27;;;11.18;;
61638;SDS011;47544;52.484;4.658;2024-03-22T00:06:29;21.98;;;9.30;;
61638;SDS011;47544;52.484;4.658;2024-03-22T00:06:40;24.60;;;10.48;;
61638;SDS011;47544;52.484;4.658;2024-03-22T00:06:52;22.80;;;10.90;;
61638;SDS011;47544;52.484;4.658;2024-03-22T00:07:03;24.35;;;10.95;;
61638;SDS011;47544;52.484;4.658;2024-03-22T00:07:14;22.55;;;10.18;;
61638;SDS011;47544;52.484;4.658;2024-03-22T00:07:26;25.50;;;11.75;;
61638;SDS011;47544;52.484;4.658;2024-03-22T00:07:38;25.20;;;12.18;;
61638;SDS011;47544;52.484;4.658;2024-03-22T00:07:49;27.35;;;13.73;;
61638;SDS011;47544;52.484;4.658;2024-03-22T00:08:04;30.48;;;14.65;;
61638;SDS011;47544;52.484;4.658;2024-03-22T00:08:15;29.88;;;13.68;;
61638;SDS011;47544;52.484;4.658;2024-03-22T00:08:26;24.98;;;11.32;;
61638;SDS011;47544;52.484;4.658;2024-03-22T00:08:36;22.10;;;10.13;;
61638;SDS011;47544;52.484;4.658;2024-03-22T00:08:47;19.90;;;9.68;;
61638;SDS011;47544;52.484;4.658;2024-03-22T00:08:58;18.98;;;9.13;;
61638;SDS011;47544;52.484;4.658;2024-03-22T00:09:09;19.30;;;9.05;;
61638;SDS011;47544;52.484;4.658;2024-03-22T00:09:22;21.98;;;9.63;;
61638;SDS011;47544;52.484;4.658;2024-03-22T00:09:34;26.27;;;11.30;;
61638;SDS011;47544;52.484;4.658;2024-03-22T00:09:46;27.25;;;12.02;;
61638;SDS011;47544;52.484;4.658;2024-03-22T00:09:57;26.35;;;11.57;;
61638;SDS011;47544;52.484;4.658;2024-03-22T00:10:10;21.35;;;10.52;;
61638;SDS011;47544;52.484;4.658;2024-03-22T00:10:21;16.90;;;9.05;;
61638;SDS011;47544;52.484;4.658;2024-03-22T00:10:32;16.35;;;8.40;;
61638;SDS011;47544;52.484;4.658;2024-03-22T00:10:43;19.00;;;8.98;;
61638;SDS011;47544;52.484;4.658;2024-03-22T00:10:54;24.50;;;11.65;;
61638;SDS011;47544;52.484;4.658;2024-03-22T00:11:05;30.42;;;14.38;;
61638;SDS011;47544;52.484;4.658;2024-03-22T00:11:16;32.65;;;15.55;;
61638;SDS011;47544;52.484;4.658;2024-03-22T00:11:30;30.05;;;14.07;;
61638;SDS011;47544;52.484;4.658;2024-03-22T00:11:41;25.98;;;12.20;;
61638;SDS011;47544;52.484;4.658;2024-03-22T00:11:52;27.63;;;12.57;;
61638;SDS011;47544;52.484;4.658;2024-03-22T00:12:03;30.80;;;13.95;;
61638;SDS011;47544;52.484;4.658;2024-03-22T00:12:14;32.53;;;14.98;;
61638;SDS011;47544;52.484;4.658;2024-03-22T00:12:26;28.20;;;13.13;;
61638;SDS011;47544;52.484;4.658;2024-03-22T00:12:36;27.92;;;13.65;;
61638;SDS011;47544;52.484;4.658;2024-03-22T00:12:48;28.33;;;13.75;;
61638;SDS011;47544;52.484;4.658;2024-03-22T00:12:59;28.17;;;13.63;;
61638;SDS011;47544;52.484;4.658;2024-03-22T00:13:10;28.80;;;12.87;;
61638;SDS011;47544;52.484;4.658;2024-03-22T00:13:21;30.88;;;13.20;;
61638;SDS011;47544;52.484;4.658;2024-03-22T00:13:32;29.37;;;13.17;;
61638;SDS011;47544;52.484;4.658;2024-03-22T00:13:43;28.03;;;13.30;;
61638;SDS011;47544;52.484;4.658;2024-03-22T00:13:55;31.40;;;15.10;;
61638;SDS011;47544;52.484;4.658;2024-03-22T00:14:06;34.22;;;16.20;;
61638;SDS011;47544;52.484;4.658;2024-03-22T00:14:17;34.13;;;15.63;;
61638;SDS011;47544;52.484;4.658;2024-03-22T00:14:29;34.83;;;15.68;;
61638;SDS011;47544;52.484;4.658;2024-03-22T00:14:40;35.40;;;15.77;;
61638;SDS011;47544;52.484;4.658;2024-03-22T00:14:51;39.83;;;17.40;;
61638;SDS011;47544;52.484;4.658;2024-03-22T00:15:09;31.90;;;13.73;;
61638;SDS011;47544;52.484;4.658;2024-03-22T00:15:21;21.70;;;11.00;;
61638;SDS011;47544;52.484;4.658;2024-03-22T00:15:32;19.67;;;10.20;;
61638;SDS011;47544;52.484;4.658;2024-03-22T00:15:43;19.85;;;10.38;;
61638;SDS011;47544;52.484;4.658;2024-03-22T00:15:56;18.13;;;8.85;;
61638;SDS011;47544;52.484;4.658;2024-03-22T00:16:07;19.10;;;9.05;;
61638;SDS011;47544;52.484;4.658;2024-03-22T00:16:17;20.90;;;10.02;;
61638;SDS011;47544;52.484;4.658;2024-03-22T00:16:29;22.80;;;10.45;;
61638;SDS011;47544;52.484;4.658;2024-03-22T00:16:42;20.27;;;9.32;;
61638;SDS011;47544;52.484;4.658;2024-03-22T00:16:54;22.25;;;9.70;;
61638;SDS011;47544;52.484;4.658;2024-03-22T00:17:05;24.42;;;10.60;;
61638;SDS011;47544;52.484;4.658;2024-03-22T00:17:16;28.30;;;12.23;;
61638;SDS011;47544;52.484;4.658;2024-03-22T00:17:27;31.00;;;13.93;;
61638;SDS011;47544;52.484;4.658;2024-03-22T00:17:39;31.60;;;14.73;;
61638;SDS011;47544;52.484;4.658;2024-03-22T00:17:50;33.47;;;15.93;;
61638;SDS011;47544;52.484;4.658;2024-03-22T00:18:01;33.08;;;15.73;;
61638;SDS011;47544;52.484;4.658;2024-03-22T00:18:12;28.60;;;13.35;;
61638;SDS011;47544;52.484;4.658;2024-03-22T00:18:23;22.58;;;10.57;;
61638;SDS011;47544;52.484;4.658;2024-03-22T00:18:34;20.27;;;9.55;;
61638;SDS011;47544;52.484;4.658;2024-03-22T00:18:45;23.90;;;11.27;;
61638;SDS011;47544;52.484;4.658;2024-03-22T00:18:56;27.08;;;12.55;;
61638;SDS011;47544;52.484;4.658;2024-03-22T00:19:07;30.00;;;14.18;;
61638;SDS011;47544;52.484;4.658;2024-03-22T00:19:18;30.73;;;14.77;;
61638;SDS011;47544;52.484;4.658;2024-03-22T00:19:29;29.42;;;14.05;;
61638;SDS011;47544;52.484;4.658;2024-03-22T00:19:40;26.85;;;11.80;;
61638;SDS011;47544;52.484;4.658;2024-03-22T00:19:51;23.25;;;10.48;;
61638;SDS011;47544;52.484;4.658;2024-03-22T00:20:02;23.40;;;10.63;;
61638;SDS011;47544;52.484;4.658;2024-03-22T00:20:14;25.30;;;11.45;;
61638;SDS011;47544;52.484;4.658;2024-03-22T00:20:25;26.38;;;11.55;;
61638;SDS011;47544;52.484;4.658;2024-03-22T00:20:36;26.67;;;12.13;;
61638;SDS011;47544;52.484;4.658;2024-03-22T00:20:47;23.98;;;11.57;;
61638;SDS011;47544;52.484;4.658;2024-03-22T00:20:58;23.38;;;11.65;;
61638;SDS011;47544;52.484;4.658;2024-03-22T00:21:09;19.70;;;10.43;;
61638;SDS011;47544;52.484;4.658;2024-03-22T00:21:20;20.33;;;10.50;;
61638;SDS011;47544;52.484;4.658;2024-03-22T00:21:33;20.02;;;10.50;;
61638;SDS011;47544;52.484;4.658;2024-03-22T00:21:44;19.70;;;9.52;;
61638;SDS011;47544;52.484;4.658;2024-03-22T00:21:55;18.92;;;9.35;;
61638;SDS011;47544;52.484;4.658;2024-03-22T00:22:06;19.95;;;9.40;;
61638;SDS011;47544;52.484;4.658;2024-03-22T00:22:17;24.60;;;10.95;;
61638;SDS011;47544;52.484;4.658;2024-03-22T00:22:28;23.63;;;10.70;;
61638;SDS011;47544;52.484;4.658;2024-03-22T00:22:40;22.13;;;10.18;;
61638;SDS011;47544;52.484;4.658;2024-03-22T00:22:51;23.15;;;10.10;;
61638;SDS011;47544;52.484;4.658;2024-03-22T00:23:02;20.52;;;9.00;;
61638;SDS011;47544;52.484;4.658;2024-03-22T00:23:13;24.55;;;10.50;;
61638;SDS011;47544;52.484;4.658;2024-03-22T00:23:25;25.07;;;11.03;;
61638;SDS011;47544;52.484;4.658;2024-03-22T00:23:36;27.58;;;12.52;;
61638;SDS011;47544;52.484;4.658;2024-03-22T00:23:47;22.63;;;11.18;;
61638;SDS011;47544;52.484;4.658;2024-03-22T00:23:58;21.50;;;10.45;;
61638;SDS011;47544;52.484;4.658;2024-03-22T00:24:11;23.90;;;10.90;;
61638;SDS011;47544;52.484;4.658;2024-03-22T00:24:22;24.35;;;11.60;;
61638;SDS011;47544;52.484;4.658;2024-03-22T00:24:33;24.75;;;11.65;;
61638;SDS011;47544;52.484;4.658;2024-03-22T00:24:44;23.80;;;11.23;;
61638;SDS011;47544;52.484;4.658;2024-03-22T00:24:55;26.27;;;11.70;;
61638;SDS011;47544;52.484;4.658;2024-03-22T00:25:06;28.52;;;12.85;;
61638;SDS011;47544;52.484;4.658;2024-03-22T00:25:17;30.58;;;13.80;;
61638;SDS011;47544;52.484;4.658;2024-03-22T00:25:28;33.80;;;15.30;;
61638;SDS011;47544;52.484;4.658;2024-03-22T00:25:40;36.03;;;16.60;;
61638;SDS011;47544;52.484;4.658;2024-03-22T00:25:51;36.55;;;16.98;;
61638;SDS011;47544;52.484;4.658;2024-03-22T00:26:01;30.75;;;14.38;;
61638;SDS011;47544;52.484;4.658;2024-03-22T00:26:12;23.80;;;11.23;;
61638;SDS011;47544;52.484;4.658;2024-03-22T00:26:23;21.58;;;10.32;;
61638;SDS011;47544;52.484;4.658;2024-03-22T00:26:34;25.40;;;11.68;;
61638;SDS011;47544;52.484;4.658;2024-03-22T00:26:45;29.10;;;12.90;;
61638;SDS011;47544;52.484;4.658;2024-03-22T00:26:56;29.50;;;13.13;;
61638;SDS011;47544;52.484;4.658;2024-03-22T00:27:07;30.63;;;14.02;;
61638;SDS011;47544;52.484;4.658;2024-03-22T00:27:18;31.20;;;14.02;;
61638;SDS011;47544;52.484;4.658;2024-03-22T00:27:29;31.50;;;13.90;;
61638;SDS011;47544;52.484;4.658;2024-03-22T00:27:40;30.35;;;13.52;;
61638;SDS011;47544;52.484;4.658;2024-03-22T00:27:51;31.65;;;14.23;;
61638;SDS011;47544;52.484;4.658;2024-03-22T00:28:03;29.75;;;13.32;;
61638;SDS011;47544;52.484;4.658;2024-03-22T00:28:14;29.05;;;13.00;;
61638;SDS011;47544;52.484;4.658;2024-03-22T00:28:25;24.67;;;11.15;;
61638;SDS011;47544;52.484;4.658;2024-03-22T00:28:36;26.08;;;11.88;;
61638;SDS011;47544;52.484;4.658;2024-03-22T00:28:47;24.50;;;11.25;;
61638;SDS011;47544;52.484;4.658;2024-03-22T00:28:58;24.58;;;11.20;;
61638;SDS011;47544;52.484;4.658;2024-03-22T00:29:09;23.17;;;10.30;;
61638;SDS011;47544;52.484;4.658;2024-03-22T00:29:20;19.58;;;10.07;;
61638;SDS011;47544;52.484;4.658;2024-03-22T00:29:31;18.75;;;9.60;;
61638;SDS011;47544;52.484;4.658;2024-03-22T00:29:42;19.30;;;9.38;;
61638;SDS011;47544;52.484;4.658;2024-03-22T00:29:53;20.92;;;9.45;;
61638;SDS011;47544;52.484;4.658;2024-03-22T00:30:05;21.23;;;10.35;;
61638;SDS011;47544;52.484;4.658;2024-03-22T00:30:19;20.38;;;10.43;;
61638;SDS011;47544;52.484;4.658;2024-03-22T00:30:30;18.25;;;8.90;;
61638;SDS011;47544;52.484;4.658;2024-03-22T00:30:40;19.27;;;9.32;;
61638;SDS011;47544;52.484;4.658;2024-03-22T00:30:51;22.63;;;10.15;;
61638;SDS011;47544;52.484;4.658;2024-03-22T00:31:05;24.08;;;10.40;;
61638;SDS011;47544;52.484;4.658;2024-03-22T00:31:17;23.02;;;9.75;;
61638;SDS011;47544;52.484;4.658;2024-03-22T00:31:29;25.27;;;10.73;;
61638;SDS011;47544;52.484;4.658;2024-03-22T00:31:40;28.75;;;13.00;;
61638;SDS011;47544;52.484;4.658;2024-03-22T00:31:50;31.93;;;14.83;;
61638;SDS011;47544;52.484;4.658;2024-03-22T00:32:01;34.00;;;15.32;;
61638;SDS011;47544;52.484;4.658;2024-03-22T00:32:12;31.33;;;13.50;;
61638;SDS011;47544;52.484;4.658;2024-03-22T00:32:24;27.42;;;11.77;;
61638;SDS011;47544;52.484;4.658;2024-03-22T00:32:35;23.55;;;10.25;;
61638;SDS011;47544;52.484;4.658;2024-03-22T00:32:46;27.10;;;10.80;;
61638;SDS011;47544;52.484;4.658;2024-03-22T00:32:57;24.23;;;10.40;;
61638;SDS011;47544;52.484;4.658;2024-03-22T00:33:08;24.38;;;10.52;;
61638;SDS011;47544;52.484;4.658;2024-03-22T00:33:20;20.67;;;10.15;;
61638;SDS011;47544;52.484;4.658;2024-03-22T00:33:31;20.27;;;9.50;;
61638;SDS011;47544;52.484;4.658;2024-03-22T00:33:42;18.80;;;8.93;;
61638;SDS011;47544;52.484;4.658;2024-03-22T00:33:53;21.08;;;9.40;;
61638;SDS011;47544;52.484;4.658;2024-03-22T00:34:04;24.63;;;9.93;;
61638;SDS011;47544;52.484;4.658;2024-03-22T00:34:15;24.25;;;9.70;;
61638;SDS011;47544;52.484;4.658;2024-03-22T00:34:27;24.63;;;9.68;;
61638;SDS011;47544;52.484;4.658;2024-03-22T00:34:38;24.70;;;10.77;;
61638;SDS011;47544;52.484;4.658;2024-03-22T00:34:49;28.90;;;13.57;;
61638;SDS011;47544;52.484;4.658;2024-03-22T00:35:00;29.13;;;14.27;;
61638;SDS011;47544;52.484;4.658;2024-03-22T00:35:11;28.73;;;13.77;;
61638;SDS011;47544;52.484;4.658;2024-03-22T00:35:22;29.58;;;14.02;;
61638;SDS011;47544;52.484;4.658;2024-03-22T00:35:33;27.48;;;13.75;;
61638;SDS011;47544;52.484;4.658;2024-03-22T00:35:45;22.40;;;12.48;;
61638;SDS011;47544;52.484;4.658;2024-03-22T00:35:56;20.40;;;11.00;;
61638;SDS011;47544;52.484;4.658;2024-03-22T00:36:07;22.70;;;11.13;;
61638;SDS011;47544;52.484;4.658;2024-03-22T00:36:18;24.55;;;11.40;;
61638;SDS011;47544;52.484;4.658;2024-03-22T00:36:29;22.38;;;10.05;;
61638;SDS011;47544;52.484;4.658;2024-03-22T00:36:40;23.20;;;10.30;;
61638;SDS011;47544;52.484;4.658;2024-03-22T00:36:51;27.48;;;12.05;;
61638;SDS011;47544;52.484;4.658;2024-03-22T00:37:02;27.17;;;11.73;;
61638;SDS011;47544;52.484;4.658;2024-03-22T00:37:13;26.75;;;11.40;;
61638;SDS011;47544;52.484;4.658;2024-03-22T00:37:24;26.25;;;11.68;;
61638;SDS011;47544;52.484;4.658;2024-03-22T00:37:36;25.92;;;12.05;;
61638;SDS011;47544;52.484;4.658;2024-03-22T00:37:47;23.98;;;11.32;;
61638;SDS011;47544;52.484;4.658;2024-03-22T00:37:58;21.98;;;10.57;;
61638;SDS011;47544;52.484;4.658;2024-03-22T00:38:09;19.83;;;10.10;;
61638;SDS011;47544;52.484;4.658;2024-03-22T00:38:23;19.10;;;9.45;;
61638;SDS011;47544;52.484;4.658;2024-03-22T00:38:34;19.45;;;9.25;;
61638;SDS011;47544;52.484;4.658;2024-03-22T00:38:46;19.23;;;9.90;;
61638;SDS011;47544;52.484;4.658;2024-03-22T00:38:57;20.17;;;10.20;;
61638;SDS011;47544;52.484;4.658;2024-03-22T00:39:08;21.52;;;10.52;;
61638;SDS011;47544;52.484;4.658;2024-03-22T00:39:19;21.13;;;10.27;;
61638;SDS011;47544;52.484;4.658;2024-03-22T00:39:30;21.35;;;10.77;;
61638;SDS011;47544;52.484;4.658;2024-03-22T00:39:41;19.60;;;9.85;;
61638;SDS011;47544;52.484;4.658;2024-03-22T00:39:52;20.48;;;9.85;;
61638;SDS011;47544;52.484;4.658;2024-03-22T00:40:03;20.45;;;9.68;;
61638;SDS011;47544;52.484;4.658;2024-03-22T00:40:16;26.40;;;12.27;;
61638;SDS011;47544;52.484;4.658;2024-03-22T00:40:27;28.48;;;13.88;;
61638;SDS011;47544;52.484;4.658;2024-03-22T00:40:40;29.33;;;13.23;;
61638;SDS011;47544;52.484;4.658;2024-03-22T00:40:51;25.77;;;10.85;;
61638;SDS011;47544;52.484;4.658;2024-03-22T00:41:02;23.65;;;10.48;;
61638;SDS011;47544;52.484;4.658;2024-03-22T00:41:12;22.92;;;9.80;;
61638;SDS011;47544;52.484;4.658;2024-03-22T00:41:24;25.92;;;11.20;;
61638;SDS011;47544;52.484;4.658;2024-03-22T00:41:38;25.23;;;10.70;;
61638;SDS011;47544;52.484;4.658;2024-03-22T00:41:49;26.60;;;10.63;;
61638;SDS011;47544;52.484;4.658;2024-03-22T00:42:00;30.17;;;11.67;;
61638;SDS011;47544;52.484;4.658;2024-03-22T00:42:11;26.65;;;10.30;;
61638;SDS011;47544;52.484;4.658;2024-03-22T00:42:22;24.30;;;10.63;;
61638;SDS011;47544;52.484;4.658;2024-03-22T00:42:33;22.42;;;9.60;;
61638;SDS011;47544;52.484;4.658;2024-03-22T00:42:44;25.02;;;10.95;;
61638;SDS011;47544;52.484;4.658;2024-03-22T00:42:55;27.65;;;11.75;;
61638;SDS011;47544;52.484;4.658;2024-03-22T00:43:06;26.90;;;12.68;;
61638;SDS011;47544;52.484;4.658;2024-03-22T00:43:17;28.40;;;13.85;;
61638;SDS011;47544;52.484;4.658;2024-03-22T00:43:28;30.33;;;14.18;;
61638;SDS011;47544;52.484;4.658;2024-03-22T00:43:40;29.35;;;12.80;;
61638;SDS011;47544;52.484;4.658;2024-03-22T00:43:52;22.95;;;10.07;;
61638;SDS011;47544;52.484;4.658;2024-03-22T00:44:03;25.35;;;11.18;;
61638;SDS011;47544;52.484;4.658;2024-03-22T00:44:14;25.30;;;11.45;;
61638;SDS011;47544;52.484;4.658;2024-03-22T00:44:25;25.65;;;11.15;;
61638;SDS011;47544;52.484;4.658;2024-03-22T00:44:37;20.20;;;9.45;;
61638;SDS011;47544;52.484;4.658;2024-03-22T00:44:52;18.42;;;9.40;;
61638;SDS011;47544;52.484;4.658;2024-03-22T00:45:05;21.77;;;9.88;;
61638;SDS011;47544;52.484;4.658;2024-03-22T00:45:16;27.13;;;11.90;;
61638;SDS011;47544;52.484;4.658;2024-03-22T00:45:30;30.27;;;13.10;;
61638;SDS011;47544;52.484;4.658;2024-03-22T00:45:41;26.38;;;12.23;;
61638;SDS011;47544;52.484;4.658;2024-03-22T00:45:52;22.40;;;10.55;;
61638;SDS011;47544;52.484;4.658;2024-03-22T00:46:03;20.10;;;9.10;;
61638;SDS011;47544;52.484;4.658;2024-03-22T00:46:14;21.70;;;9.30;;
61638;SDS011;47544;52.484;4.658;2024-03-22T00:46:25;26.13;;;10.38;;
61638;SDS011;47544;52.484;4.658;2024-03-22T00:46:36;27.25;;;11.20;;
61638;SDS011;47544;52.484;4.658;2024-03-22T00:46:47;30.25;;;12.50;;
61638;SDS011;47544;52.484;4.658;2024-03-22T00:46:59;26.20;;;11.90;;
61638;SDS011;47544;52.484;4.658;2024-03-22T00:47:12;17.92;;;9.52;;
61638;SDS011;47544;52.484;4.658;2024-03-22T00:47:23;16.45;;;9.00;;
61638;SDS011;47544;52.484;4.658;2024-03-22T00:47:34;19.63;;;9.52;;
61638;SDS011;47544;52.484;4.658;2024-03-22T00:47:45;23.25;;;10.45;;
61638;SDS011;47544;52.484;4.658;2024-03-22T00:47:56;26.38;;;11.48;;
61638;SDS011;47544;52.484;4.658;2024-03-22T00:48:07;26.88;;;11.98;;
61638;SDS011;47544;52.484;4.658;2024-03-22T00:48:18;27.33;;;11.60;;
61638;SDS011;47544;52.484;4.658;2024-03-22T00:48:29;28.25;;;11.77;;
61638;SDS011;47544;52.484;4.658;2024-03-22T00:48:44;27.42;;;11.30;;
61638;SDS011;47544;52.484;4.658;2024-03-22T00:49:02;27.33;;;12.13;;
61638;SDS011;47544;52.484;4.658;2024-03-22T00:49:20;25.42;;;12.18;;
61638;SDS011;47544;52.484;4.658;2024-03-22T00:49:31;22.63;;;10.07;;
61638;SDS011;47544;52.484;4.658;2024-03-22T00:49:42;25.00;;;10.43;;
61638;SDS011;47544;52.484;4.658;2024-03-22T00:49:53;24.85;;;10.43;;
61638;SDS011;47544;52.484;4.658;2024-03-22T00:50:06;25.95;;;11.32;;
61638;SDS011;47544;52.484;4.658;2024-03-22T00:50:17;24.75;;;10.88;;
61638;SDS011;47544;52.484;4.658;2024-03-22T00:50:28;24.02;;;10.82;;
61638;SDS011;47544;52.484;4.658;2024-03-22T00:50:39;25.65;;;11.73;;
61638;SDS011;47544;52.484;4.658;2024-03-22T00:50:50;24.40;;;11.32;;
61638;SDS011;47544;52.484;4.658;2024-03-22T00:51:01;27.02;;;11.93;;
61638;SDS011;47544;52.484;4.658;2024-03-22T00:51:12;26.48;;;12.15;;
61638;SDS011;47544;52.484;4.658;2024-03-22T00:51:24;27.45;;;12.85;;
61638;SDS011;47544;52.484;4.658;2024-03-22T00:51:35;22.63;;;10.75;;
61638;SDS011;47544;52.484;4.658;2024-03-22T00:51:46;17.63;;;8.75;;
61638;SDS011;47544;52.484;4.658;2024-03-22T00:52:00;15.38;;;8.35;;
61638;SDS011;47544;52.484;4.658;2024-03-22T00:52:13;18.70;;;8.77;;
61638;SDS011;47544;52.484;4.658;2024-03-22T00:52:24;21.02;;;9.18;;
61638;SDS011;47544;52.484;4.658;2024-03-22T00:52:35;20.83;;;9.45;;
61638;SDS011;47544;52.484;4.658;2024-03-22T00:52:46;20.15;;;9.38;;
61638;SDS011;47544;52.484;4.658;2024-03-22T00:52:57;21.15;;;9.43;;
61638;SDS011;47544;52.484;4.658;2024-03-22T00:53:08;21.05;;;9.00;;
61638;SDS011;47544;52.484;4.658;2024-03-22T00:53:23;19.27;;;8.82;;
61638;SDS011;47544;52.484;4.658;2024-03-22T00:53:34;18.60;;;8.73;;
61638;SDS011;47544;52.484;4.658;2024-03-22T00:53:45;20.65;;;9.80;;
61638;SDS011;47544;52.484;4.658;2024-03-22T00:53:58;23.40;;;10.70;;
61638;SDS011;47544;52.484;4.658;2024-03-22T00:54:09;22.00;;;10.10;;
61638;SDS011;47544;52.484;4.658;2024-03-22T00:54:20;19.52;;;9.30;;
61638;SDS011;47544;52.484;4.658;2024-03-22T00:54:31;22.27;;;10.70;;
61638;SDS011;47544;52.484;4.658;2024-03-22T00:54:42;23.17;;;11.00;;
61638;SDS011;47544;52.484;4.658;2024-03-22T00:54:54;22.73;;;10.88;;
61638;SDS011;47544;52.484;4.658;2024-03-22T00:55:05;23.67;;;10.68;;
61638;SDS011;47544;52.484;4.658;2024-03-22T00:55:17;27.70;;;12.35;;
61638;SDS011;47544;52.484;4.658;2024-03-22T00:55:28;27.75;;;11.77;;
61638;SDS011;47544;52.484;4.658;2024-03-22T00:55:39;24.98;;;10.85;;
61638;SDS011;47544;52.484;4.658;2024-03-22T00:55:50;24.95;;;10.57;;
61638;SDS011;47544;52.484;4.658;2024-03-22T00:56:01;21.40;;;9.32;;
61638;SDS011;47544;52.484;4.658;2024-03-22T00:56:12;22.52;;;10.15;;
61638;SDS011;47544;52.484;4.658;2024-03-22T00:56:23;24.65;;;10.68;;
61638;SDS011;47544;52.484;4.658;2024-03-22T00:56:34;27.90;;;12.43;;
61638;SDS011;47544;52.484;4.658;2024-03-22T00:56:45;24.20;;;11.18;;
61638;SDS011;47544;52.484;4.658;2024-03-22T00:56:59;22.08;;;9.73;;
61638;SDS011;47544;52.484;4.658;2024-03-22T00:57:12;22.30;;;8.98;;
61638;SDS011;47544;52.484;4.658;2024-03-22T00:57:26;21.23;;;9.38;;
61638;SDS011;47544;52.484;4.658;2024-03-22T00:57:37;17.67;;;9.43;;
61638;SDS011;47544;52.484;4.658;2024-03-22T00:57:48;18.25;;;10.05;;
61638;SDS011;47544;52.484;4.658;2024-03-22T00:57:59;20.05;;;10.57;;
61638;SDS011;47544;52.484;4.658;2024-03-22T00:58:12;20.33;;;10.40;;
61638;SDS011;47544;52.484;4.658;2024-03-22T00:58:23;21.23;;;9.93;;
61638;SDS011;47544;52.484;4.658;2024-03-22T00:58:36;19.33;;;8.60;;
61638;SDS011;47544;52.484;4.658;2024-03-22T00:59:02;17.85;;;9.02;;
61638;SDS011;47544;52.484;4.658;2024-03-22T00:59:13;17.30;;;8.80;;
61638;SDS011;47544;52.484;4.658;2024-03-22T00:59:25;16.35;;;8.63;;
61638;SDS011;47544;52.484;4.658;2024-03-22T00:59:38;15.10;;;8.35;;
61638;SDS011;47544;52.484;4.658;2024-03-22T00:59:49;15.50;;;7.95;;
61638;SDS011;47544;52.484;4.658;2024-03-22T01:00:00;18.95;;;8.60;;
61638;SDS011;47544;52.484;4.658;2024-03-22T01:00:12;22.85;;;10.15;;
61638;SDS011;47544;52.484;4.658;2024-03-22T01:00:23;23.52;;;9.98;;
61638;SDS011;47544;52.484;4.658;2024-03-22T01:00:37;21.83;;;10.07;;
61638;SDS011;47544;52.484;4.658;2024-03-22T01:00:49;23.20;;;10.40;;
61638;SDS011;47544;52.484;4.658;2024-03-22T01:01:01;24.05;;;10.20;;
61638;SDS011;47544;52.484;4.658;2024-03-22T01:01:13;24.33;;;10.02;;
61638;SDS011;47544;52.484;4.658;2024-03-22T01:01:24;19.27;;;8.20;;
61638;SDS011;47544;52.484;4.658;2024-03-22T01:01:35;16.98;;;8.02;;
61638;SDS011;47544;52.484;4.658;2024-03-22T01:01:48;18.73;;;7.88;;
61638;SDS011;47544;52.484;4.658;2024-03-22T01:01:59;18.05;;;7.47;;
61638;SDS011;47544;52.484;4.658;2024-03-22T01:02:10;19.77;;;6.97;;
61638;SDS011;47544;52.484;4.658;2024-03-22T01:02:21;19.50;;;7.75;;
61638;SDS011;47544;52.484;4.658;2024-03-22T01:02:34;23.42;;;9.50;;
61638;SDS011;47544;52.484;4.658;2024-03-22T01:02:45;27.90;;;11.88;;
61638;SDS011;47544;52.484;4.658;2024-03-22T01:02:57;22.65;;;10.15;;
61638;SDS011;47544;52.484;4.658;2024-03-22T01:03:08;19.30;;;9.05;;
61638;SDS011;47544;52.484;4.658;2024-03-22T01:03:20;18.98;;;8.73;;
61638;SDS011;47544;52.484;4.658;2024-03-22T01:03:31;20.27;;;8.65;;
61638;SDS011;47544;52.484;4.658;2024-03-22T01:03:42;21.30;;;8.57;;
61638;SDS011;47544;52.484;4.658;2024-03-22T01:03:53;20.58;;;9.02;;
61638;SDS011;47544;52.484;4.658;2024-03-22T01:04:04;17.95;;;8.48;;
61638;SDS011;47544;52.484;4.658;2024-03-22T01:04:15;17.40;;;8.63;;
61638;SDS011;47544;52.484;4.658;2024-03-22T01:04:26;18.53;;;8.30;;
61638;SDS011;47544;52.484;4.658;2024-03-22T01:04:38;19.90;;;8.18;;
61638;SDS011;47544;52.484;4.658;2024-03-22T01:04:51;17.42;;;7.68;;
61638;SDS011;47544;52.484;4.658;2024-03-22T01:05:02;17.83;;;8.10;;
61638;SDS011;47544;52.484;4.658;2024-03-22T01:05:13;17.60;;;8.27;;
61638;SDS011;47544;52.484;4.658;2024-03-22T01:05:26;16.70;;;7.47;;
61638;SDS011;47544;52.484;4.658;2024-03-22T01:05:37;14.38;;;6.60;;
61638;SDS011;47544;52.484;4.658;2024-03-22T01:05:48;16.42;;;6.97;;
61638;SDS011;47544;52.484;4.658;2024-03-22T01:06:02;18.23;;;7.82;;
61638;SDS011;47544;52.484;4.658;2024-03-22T01:06:13;18.92;;;8.27;;
61638;SDS011;47544;52.484;4.658;2024-03-22T01:06:24;18.45;;;8.88;;
61638;SDS011;47544;52.484;4.658;2024-03-22T01:06:36;17.70;;;9.27;;
61638;SDS011;47544;52.484;4.658;2024-03-22T01:06:48;19.60;;;9.38;;
61638;SDS011;47544;52.484;4.658;2024-03-22T01:06:59;20.25;;;9.18;;
61638;SDS011;47544;52.484;4.658;2024-03-22T01:07:10;18.92;;;8.80;;
61638;SDS011;47544;52.484;4.658;2024-03-22T01:07:21;16.48;;;8.38;;
61638;SDS011;47544;52.484;4.658;2024-03-22T01:07:32;17.80;;;8.57;;